PWSweather.com
Personal Weather Stations
Station Observations
LEONMETEO
LeonES 24008

LeonES 24008

Lat: 42.6055559, Lon: -5.5752249

Elevation: 2690

Station Type: La Crosse WS3600

Latest ConditionsUpdated 10:33:28 AM GMT+01:01 Saturday, Dec 20, 2014
Currently Today's Max Today's Min Today's Average
Temperature 33.9°F1.1°C 34.1°F1.2°C 32.5°F0.3°C 33.2°F0.7°C
Dew Point 30.9°F-0.6°C 31.1°F-0.5°C 29.3°F-1.5°C 30.2°F-1.0°C
Winds - N16091.8 kmh N Calm Calm - Calm Calm
Wind Gusts -- -- - -
Humidity 89% 89% 88% 89%
Pressure 30.29 in1025.7 mb 30.29 in1025.7 mb 30.25 in1024.4 mb -
Hour Temp Dew Point Humidity Winds Wind Gusts Pressure Precip Precip Rate Daily Precip Total
10:33 AM 33.9°F1.1°C 30.9°F-0.6°C 89% - N16091.8 kmh N -- 30.29 in1025.7 mb 0.00 in0.0 mm 0.00 in/hr0.0 mm/hr 0.00 in0.0 mm
10:28 AM 34.1°F1.2°C 31.1°F-0.5°C 89% - N16091.8 kmh N -- 30.29 in1025.7 mb 0.00 in0.0 mm 0.00 in/hr0.0 mm/hr 0.00 in0.0 mm
10:23 AM 34.1°F1.2°C 31.1°F-0.5°C 89% - N16091.8 kmh N -- 30.29 in1025.7 mb 0.00 in0.0 mm 0.00 in/hr0.0 mm/hr 0.00 in0.0 mm
10:18 AM 33.9°F1.1°C 30.9°F-0.6°C 89% - N16091.8 kmh N -- 30.29 in1025.7 mb 0.00 in0.0 mm 0.00 in/hr0.0 mm/hr 0.00 in0.0 mm
10:13 AM 33.8°F1.0°C 30.8°F-0.7°C 89% - N16091.8 kmh N -- 30.29 in1025.7 mb 0.00 in0.0 mm 0.00 in/hr0.0 mm/hr 0.00 in0.0 mm
10:08 AM 33.9°F1.1°C 30.9°F-0.6°C 89% - N16091.8 kmh N -- 30.29 in1025.7 mb 0.00 in0.0 mm 0.00 in/hr0.0 mm/hr 0.00 in0.0 mm
10:03 AM 33.6°F0.9°C 30.6°F-0.8°C 89% - N16091.8 kmh N -- 30.28 in1025.4 mb 0.00 in0.0 mm 0.00 in/hr0.0 mm/hr 0.00 in0.0 mm
09:58 AM 33.6°F0.9°C 30.6°F-0.8°C 89% - N16091.8 kmh N -- 30.28 in1025.4 mb 0.00 in0.0 mm 0.00 in/hr0.0 mm/hr 0.00 in0.0 mm
09:53 AM 33.6°F0.9°C 30.6°F-0.8°C 89% - N16091.8 kmh N -- 30.28 in1025.4 mb 0.00 in0.0 mm 0.00 in/hr0.0 mm/hr 0.00 in0.0 mm
09:48 AM 33.4°F0.8°C 30.4°F-0.9°C 89% - N16091.8 kmh N -- 30.28 in1025.4 mb 0.00 in0.0 mm 0.00 in/hr0.0 mm/hr 0.00 in0.0 mm
09:43 AM 33.6°F0.9°C 30.6°F-0.8°C 89% - N16091.8 kmh N -- 30.28 in1025.4 mb 0.00 in0.0 mm 0.00 in/hr0.0 mm/hr 0.00 in0.0 mm
09:38 AM 33.6°F0.9°C 30.6°F-0.8°C 89% - N16091.8 kmh N -- 30.28 in1025.4 mb 0.00 in0.0 mm 0.00 in/hr0.0 mm/hr 0.00 in0.0 mm
09:33 AM 33.4°F0.8°C 30.4°F-0.9°C 89% - N16091.8 kmh N -- 30.28 in1025.4 mb 0.00 in0.0 mm 0.00 in/hr0.0 mm/hr 0.00 in0.0 mm
09:28 AM 33.4°F0.8°C 30.4°F-0.9°C 89% - N16091.8 kmh N -- 30.28 in1025.4 mb 0.00 in0.0 mm 0.00 in/hr0.0 mm/hr 0.00 in0.0 mm
09:23 AM 33.4°F0.8°C 30.4°F-0.9°C 89% - N16091.8 kmh N -- 30.28 in1025.4 mb 0.00 in0.0 mm 0.00 in/hr0.0 mm/hr 0.00 in0.0 mm
09:18 AM 33.4°F0.8°C 30.4°F-0.9°C 89% - N16091.8 kmh N -- 30.28 in1025.4 mb 0.00 in0.0 mm 0.00 in/hr0.0 mm/hr 0.00 in0.0 mm
09:13 AM 33.4°F0.8°C 30.4°F-0.9°C 89% - N16091.8 kmh N -- 30.28 in1025.4 mb 0.00 in0.0 mm 0.00 in/hr0.0 mm/hr 0.00 in0.0 mm
09:08 AM 33.4°F0.8°C 30.4°F-0.9°C 89% - N16091.8 kmh N -- 30.27 in1025.1 mb 0.00 in0.0 mm 0.00 in/hr0.0 mm/hr 0.00 in0.0 mm
09:03 AM 33.4°F0.8°C 30.4°F-0.9°C 89% - N16091.8 kmh N -- 30.27 in1025.1 mb 0.00 in0.0 mm 0.00 in/hr0.0 mm/hr 0.00 in0.0 mm
08:58 AM 33.4°F0.8°C 30.4°F-0.9°C 89% - N16091.8 kmh N -- 30.27 in1025.1 mb 0.00 in0.0 mm 0.00 in/hr0.0 mm/hr 0.00 in0.0 mm
08:53 AM 33.4°F0.8°C 30.4°F-0.9°C 89% - N16091.8 kmh N -- 30.27 in1025.1 mb 0.00 in0.0 mm 0.00 in/hr0.0 mm/hr 0.00 in0.0 mm
08:48 AM 33.4°F0.8°C 30.4°F-0.9°C 89% - N16091.8 kmh N -- 30.27 in1025.1 mb 0.00 in0.0 mm 0.00 in/hr0.0 mm/hr 0.00 in0.0 mm
08:43 AM 33.4°F0.8°C 30.4°F-0.9°C 89% - N16091.8 kmh N -- 30.27 in1025.1 mb 0.00 in0.0 mm 0.00 in/hr0.0 mm/hr 0.00 in0.0 mm
08:38 AM 33.4°F0.8°C 30.4°F-0.9°C 89% - N16091.8 kmh N -- 30.27 in1025.1 mb 0.00 in0.0 mm 0.00 in/hr0.0 mm/hr 0.00 in0.0 mm
08:33 AM 33.4°F0.8°C 30.4°F-0.9°C 89% - N16091.8 kmh N -- 30.27 in1025.1 mb 0.00 in0.0 mm 0.00 in/hr0.0 mm/hr 0.00 in0.0 mm
08:28 AM 33.4°F0.8°C 30.4°F-0.9°C 89% - N16091.8 kmh N -- 30.27 in1025.1 mb 0.00 in0.0 mm 0.00 in/hr0.0 mm/hr 0.00 in0.0 mm
08:23 AM 33.4°F0.8°C 30.4°F-0.9°C 89% - N16091.8 kmh N -- 30.27 in1025.1 mb 0.00 in0.0 mm 0.00 in/hr0.0 mm/hr 0.00 in0.0 mm
08:18 AM 33.0°F0.6°C 30.1°F-1.1°C 89% - N16091.8 kmh N -- 30.27 in1025.1 mb 0.00 in0.0 mm 0.00 in/hr0.0 mm/hr 0.00 in0.0 mm
08:13 AM 33.0°F0.6°C 30.1°F-1.1°C 89% - N16091.8 kmh N -- 30.27 in1025.1 mb 0.00 in0.0 mm 0.00 in/hr0.0 mm/hr 0.00 in0.0 mm
08:08 AM 33.0°F0.6°C 30.1°F-1.1°C 89% - N16091.8 kmh N -- 30.27 in1025.1 mb 0.00 in0.0 mm 0.00 in/hr0.0 mm/hr 0.00 in0.0 mm
08:03 AM 33.0°F0.6°C 30.1°F-1.1°C 89% - N16091.8 kmh N -- 30.27 in1025.1 mb 0.00 in0.0 mm 0.00 in/hr0.0 mm/hr 0.00 in0.0 mm
07:58 AM 33.0°F0.6°C 30.1°F-1.1°C 89% - N16091.8 kmh N -- 30.26 in1024.7 mb 0.00 in0.0 mm 0.00 in/hr0.0 mm/hr 0.00 in0.0 mm
07:52 AM 32.9°F0.5°C 30.0°F-1.1°C 89% - N16091.8 kmh N -- 30.26 in1024.7 mb 0.00 in0.0 mm 0.00 in/hr0.0 mm/hr 0.00 in0.0 mm
07:48 AM 32.9°F0.5°C 30.0°F-1.1°C 89% - N16091.8 kmh N -- 30.26 in1024.7 mb 0.00 in0.0 mm 0.00 in/hr0.0 mm/hr 0.00 in0.0 mm
07:42 AM 32.9°F0.5°C 30.0°F-1.1°C 89% - N16091.8 kmh N -- 30.26 in1024.7 mb 0.00 in0.0 mm 0.00 in/hr0.0 mm/hr 0.00 in0.0 mm
07:37 AM 32.9°F0.5°C 30.0°F-1.1°C 89% - N16091.8 kmh N -- 30.26 in1024.7 mb 0.00 in0.0 mm 0.00 in/hr0.0 mm/hr 0.00 in0.0 mm
07:32 AM 32.9°F0.5°C 30.0°F-1.1°C 89% - N16091.8 kmh N -- 30.25 in1024.4 mb 0.00 in0.0 mm 0.00 in/hr0.0 mm/hr 0.00 in0.0 mm
07:27 AM 32.9°F0.5°C 30.0°F-1.1°C 89% - N16091.8 kmh N -- 30.25 in1024.4 mb 0.00 in0.0 mm 0.00 in/hr0.0 mm/hr 0.00 in0.0 mm
07:22 AM 32.9°F0.5°C 30.0°F-1.1°C 89% - N16091.8 kmh N -- 30.25 in1024.4 mb 0.00 in0.0 mm 0.00 in/hr0.0 mm/hr 0.00 in0.0 mm
07:17 AM 32.9°F0.5°C 30.0°F-1.1°C 89% - N16091.8 kmh N -- 30.26 in1024.7 mb 0.00 in0.0 mm 0.00 in/hr0.0 mm/hr 0.00 in0.0 mm
07:12 AM 32.9°F0.5°C 30.0°F-1.1°C 89% - N16091.8 kmh N -- 30.26 in1024.7 mb 0.00 in0.0 mm 0.00 in/hr0.0 mm/hr 0.00 in0.0 mm
07:07 AM 32.7°F0.4°C 29.8°F-1.2°C 89% - N16091.8 kmh N -- 30.25 in1024.4 mb 0.00 in0.0 mm 0.00 in/hr0.0 mm/hr 0.00 in0.0 mm
07:02 AM 32.7°F0.4°C 29.8°F-1.2°C 89% - N16091.8 kmh N -- 30.25 in1024.4 mb 0.00 in0.0 mm 0.00 in/hr0.0 mm/hr 0.00 in0.0 mm
06:57 AM 32.7°F0.4°C 29.8°F-1.2°C 89% - N16091.8 kmh N -- 30.25 in1024.4 mb 0.00 in0.0 mm 0.00 in/hr0.0 mm/hr 0.00 in0.0 mm
06:52 AM 32.7°F0.4°C 29.8°F-1.2°C 89% - N16091.8 kmh N -- 30.25 in1024.4 mb 0.00 in0.0 mm 0.00 in/hr0.0 mm/hr 0.00 in0.0 mm
06:47 AM 32.7°F0.4°C 29.8°F-1.2°C 89% - N16091.8 kmh N -- 30.25 in1024.4 mb 0.00 in0.0 mm 0.00 in/hr0.0 mm/hr 0.00 in0.0 mm
06:42 AM 32.7°F0.4°C 29.8°F-1.2°C 89% - N16091.8 kmh N -- 30.25 in1024.4 mb 0.00 in0.0 mm 0.00 in/hr0.0 mm/hr 0.00 in0.0 mm
06:37 AM 32.7°F0.4°C 29.8°F-1.2°C 89% - N16091.8 kmh N -- 30.25 in1024.4 mb 0.00 in0.0 mm 0.00 in/hr0.0 mm/hr 0.00 in0.0 mm
06:32 AM 32.9°F0.5°C 30.0°F-1.1°C 89% - N16091.8 kmh N -- 30.25 in1024.4 mb 0.00 in0.0 mm 0.00 in/hr0.0 mm/hr 0.00 in0.0 mm
06:27 AM 32.9°F0.5°C 30.0°F-1.1°C 89% - N16091.8 kmh N -- 30.25 in1024.4 mb 0.00 in0.0 mm 0.00 in/hr0.0 mm/hr 0.00 in0.0 mm
06:22 AM 33.0°F0.6°C 30.1°F-1.1°C 89% - N16091.8 kmh N -- 30.25 in1024.4 mb 0.00 in0.0 mm 0.00 in/hr0.0 mm/hr 0.00 in0.0 mm
06:17 AM 33.0°F0.6°C 30.1°F-1.1°C 89% - N16091.8 kmh N -- 30.25 in1024.4 mb 0.00 in0.0 mm 0.00 in/hr0.0 mm/hr 0.00 in0.0 mm
06:12 AM 33.0°F0.6°C 30.1°F-1.1°C 89% - N16091.8 kmh N -- 30.25 in1024.4 mb 0.00 in0.0 mm 0.00 in/hr0.0 mm/hr 0.00 in0.0 mm
06:07 AM 32.9°F0.5°C 30.0°F-1.1°C 89% - N16091.8 kmh N -- 30.25 in1024.4 mb 0.00 in0.0 mm 0.00 in/hr0.0 mm/hr 0.00 in0.0 mm
06:02 AM 33.0°F0.6°C 30.1°F-1.1°C 89% - N16091.8 kmh N -- 30.25 in1024.4 mb 0.00 in0.0 mm 0.00 in/hr0.0 mm/hr 0.00 in0.0 mm
05:57 AM 33.0°F0.6°C 30.1°F-1.1°C 89% - N16091.8 kmh N -- 30.25 in1024.4 mb 0.00 in0.0 mm 0.00 in/hr0.0 mm/hr 0.00 in0.0 mm
05:52 AM 33.0°F0.6°C 30.1°F-1.1°C 89% - N16091.8 kmh N -- 30.25 in1024.4 mb 0.00 in0.0 mm 0.00 in/hr0.0 mm/hr 0.00 in0.0 mm
05:47 AM 32.9°F0.5°C 30.0°F-1.1°C 89% - N16091.8 kmh N -- 30.25 in1024.4 mb 0.00 in0.0 mm 0.00 in/hr0.0 mm/hr 0.00 in0.0 mm
05:42 AM 32.7°F0.4°C 29.8°F-1.2°C 89% - N16091.8 kmh N -- 30.25 in1024.4 mb 0.00 in0.0 mm 0.00 in/hr0.0 mm/hr 0.00 in0.0 mm
05:37 AM 32.7°F0.4°C 29.8°F-1.2°C 89% - N16091.8 kmh N -- 30.26 in1024.7 mb 0.00 in0.0 mm 0.00 in/hr0.0 mm/hr 0.00 in0.0 mm
05:32 AM 32.7°F0.4°C 29.8°F-1.2°C 89% - N16091.8 kmh N -- 30.26 in1024.7 mb 0.00 in0.0 mm 0.00 in/hr0.0 mm/hr 0.00 in0.0 mm
05:27 AM 32.5°F0.3°C 29.3°F-1.5°C 89% - N16091.8 kmh N -- 30.26 in1024.7 mb 0.00 in0.0 mm 0.00 in/hr0.0 mm/hr 0.00 in0.0 mm
05:22 AM 32.5°F0.3°C 29.3°F-1.5°C 88% - N16091.8 kmh N -- 30.26 in1024.7 mb 0.00 in0.0 mm 0.00 in/hr0.0 mm/hr 0.00 in0.0 mm
05:17 AM 32.5°F0.3°C 29.3°F-1.5°C 88% - N16091.8 kmh N -- 30.26 in1024.7 mb 0.00 in0.0 mm 0.00 in/hr0.0 mm/hr 0.00 in0.0 mm
05:12 AM 32.7°F0.4°C 29.8°F-1.2°C 89% - N16091.8 kmh N -- 30.26 in1024.7 mb 0.00 in0.0 mm 0.00 in/hr0.0 mm/hr 0.00 in0.0 mm
05:07 AM 32.7°F0.4°C 29.8°F-1.2°C 89% - N16091.8 kmh N -- 30.27 in1025.1 mb 0.00 in0.0 mm 0.00 in/hr0.0 mm/hr 0.00 in0.0 mm
05:02 AM 32.9°F0.5°C 30.0°F-1.1°C 89% - N16091.8 kmh N -- 30.26 in1024.7 mb 0.00 in0.0 mm 0.00 in/hr0.0 mm/hr 0.00 in0.0 mm
04:57 AM 32.9°F0.5°C 30.0°F-1.1°C 89% - N16091.8 kmh N -- 30.26 in1024.7 mb 0.00 in0.0 mm 0.00 in/hr0.0 mm/hr 0.00 in0.0 mm
04:52 AM 32.9°F0.5°C 30.0°F-1.1°C 88% - N16091.8 kmh N -- 30.27 in1025.1 mb 0.00 in0.0 mm 0.00 in/hr0.0 mm/hr 0.00 in0.0 mm
04:47 AM 32.9°F0.5°C 30.0°F-1.1°C 89% - N16091.8 kmh N -- 30.26 in1024.7 mb 0.00 in0.0 mm 0.00 in/hr0.0 mm/hr 0.00 in0.0 mm
04:42 AM 33.0°F0.6°C 30.1°F-1.1°C 89% - N16091.8 kmh N -- 30.27 in1025.1 mb 0.00 in0.0 mm 0.00 in/hr0.0 mm/hr 0.00 in0.0 mm
04:37 AM 33.0°F0.6°C 30.1°F-1.1°C 89% - N16091.8 kmh N -- 30.26 in1024.7 mb 0.00 in0.0 mm 0.00 in/hr0.0 mm/hr 0.00 in0.0 mm
04:32 AM 33.0°F0.6°C 30.1°F-1.1°C 89% - N16091.8 kmh N -- 30.26 in1024.7 mb 0.00 in0.0 mm 0.00 in/hr0.0 mm/hr 0.00 in0.0 mm
04:27 AM 33.0°F0.6°C 30.1°F-1.1°C 89% - N16091.8 kmh N -- 30.26 in1024.7 mb 0.00 in0.0 mm 0.00 in/hr0.0 mm/hr 0.00 in0.0 mm
04:22 AM 33.0°F0.6°C 30.1°F-1.1°C 89% - N16091.8 kmh N -- 30.26 in1024.7 mb 0.00 in0.0 mm 0.00 in/hr0.0 mm/hr 0.00 in0.0 mm
04:17 AM 33.0°F0.6°C 30.1°F-1.1°C 89% - N16091.8 kmh N -- 30.27 in1025.1 mb 0.00 in0.0 mm 0.00 in/hr0.0 mm/hr 0.00 in0.0 mm
04:12 AM 33.0°F0.6°C 30.1°F-1.1°C 89% - N16091.8 kmh N -- 30.27 in1025.1 mb 0.00 in0.0 mm 0.00 in/hr0.0 mm/hr 0.00 in0.0 mm
04:07 AM 33.0°F0.6°C 29.8°F-1.2°C 89% - N16091.8 kmh N -- 30.27 in1025.1 mb 0.00 in0.0 mm 0.00 in/hr0.0 mm/hr 0.00 in0.0 mm
04:02 AM 33.0°F0.6°C 29.8°F-1.2°C 88% - N16091.8 kmh N -- 30.27 in1025.1 mb 0.00 in0.0 mm 0.00 in/hr0.0 mm/hr 0.00 in0.0 mm
03:57 AM 33.0°F0.6°C 29.8°F-1.2°C 89% - N16091.8 kmh N -- 30.27 in1025.1 mb 0.00 in0.0 mm 0.00 in/hr0.0 mm/hr 0.00 in0.0 mm
03:52 AM 33.0°F0.6°C 29.8°F-1.2°C 89% - N16091.8 kmh N -- 30.27 in1025.1 mb 0.00 in0.0 mm 0.00 in/hr0.0 mm/hr 0.00 in0.0 mm
03:46 AM 33.0°F0.6°C 29.8°F-1.2°C 89% - N16091.8 kmh N -- 30.27 in1025.1 mb 0.00 in0.0 mm 0.00 in/hr0.0 mm/hr 0.00 in0.0 mm
03:41 AM 33.0°F0.6°C 29.8°F-1.2°C 88% - N16091.8 kmh N -- 30.27 in1025.1 mb 0.00 in0.0 mm 0.00 in/hr0.0 mm/hr 0.00 in0.0 mm
03:36 AM 33.0°F0.6°C 29.8°F-1.2°C 88% - N16091.8 kmh N -- 30.27 in1025.1 mb 0.00 in0.0 mm 0.00 in/hr0.0 mm/hr 0.00 in0.0 mm
03:31 AM 33.4°F0.8°C 30.4°F-0.9°C 89% - N16091.8 kmh N -- 30.27 in1025.1 mb 0.00 in0.0 mm 0.00 in/hr0.0 mm/hr 0.00 in0.0 mm
03:26 AM 33.4°F0.8°C 30.4°F-0.9°C 89% - N16091.8 kmh N -- 30.27 in1025.1 mb 0.00 in0.0 mm 0.00 in/hr0.0 mm/hr 0.00 in0.0 mm
03:21 AM 33.4°F0.8°C 30.4°F-0.9°C 89% - N16091.8 kmh N -- 30.26 in1024.7 mb 0.00 in0.0 mm 0.00 in/hr0.0 mm/hr 0.00 in0.0 mm
03:16 AM 33.4°F0.8°C 30.4°F-0.9°C 89% - N16091.8 kmh N -- 30.26 in1024.7 mb 0.00 in0.0 mm 0.00 in/hr0.0 mm/hr 0.00 in0.0 mm
03:11 AM 33.4°F0.8°C 30.4°F-0.9°C 89% - N16091.8 kmh N -- 30.26 in1024.7 mb 0.00 in0.0 mm 0.00 in/hr0.0 mm/hr 0.00 in0.0 mm
03:06 AM 33.4°F0.8°C 30.4°F-0.9°C 89% - N16091.8 kmh N -- 30.26 in1024.7 mb 0.00 in0.0 mm 0.00 in/hr0.0 mm/hr 0.00 in0.0 mm
03:01 AM 33.6°F0.9°C 30.6°F-0.8°C 89% - N16091.8 kmh N -- 30.26 in1024.7 mb 0.00 in0.0 mm 0.00 in/hr0.0 mm/hr 0.00 in0.0 mm
02:56 AM 33.6°F0.9°C 30.6°F-0.8°C 89% - N16091.8 kmh N -- 30.27 in1025.1 mb 0.00 in0.0 mm 0.00 in/hr0.0 mm/hr 0.00 in0.0 mm
02:51 AM 33.6°F0.9°C 30.6°F-0.8°C 89% - N16091.8 kmh N -- 30.27 in1025.1 mb 0.00 in0.0 mm 0.00 in/hr0.0 mm/hr 0.00 in0.0 mm
02:46 AM 33.6°F0.9°C 30.6°F-0.8°C 89% - N16091.8 kmh N -- 30.26 in1024.7 mb 0.00 in0.0 mm 0.00 in/hr0.0 mm/hr 0.00 in0.0 mm
02:41 AM 33.6°F0.9°C 30.6°F-0.8°C 89% - N16091.8 kmh N -- 30.26 in1024.7 mb 0.00 in0.0 mm 0.00 in/hr0.0 mm/hr 0.00 in0.0 mm
02:36 AM 33.6°F0.9°C 30.6°F-0.8°C 89% - N16091.8 kmh N -- 30.26 in1024.7 mb 0.00 in0.0 mm 0.00 in/hr0.0 mm/hr 0.00 in0.0 mm
02:31 AM 33.6°F0.9°C 30.6°F-0.8°C 89% - N16091.8 kmh N -- 30.26 in1024.7 mb 0.00 in0.0 mm 0.00 in/hr0.0 mm/hr 0.00 in0.0 mm
02:26 AM 33.4°F0.8°C 30.4°F-0.9°C 89% - N16091.8 kmh N -- 30.26 in1024.7 mb 0.00 in0.0 mm 0.00 in/hr0.0 mm/hr 0.00 in0.0 mm
02:21 AM 33.4°F0.8°C 30.4°F-0.9°C 89% - N16091.8 kmh N -- 30.26 in1024.7 mb 0.00 in0.0 mm 0.00 in/hr0.0 mm/hr 0.00 in0.0 mm
02:16 AM 33.4°F0.8°C 30.4°F-0.9°C 89% - N16091.8 kmh N -- 30.26 in1024.7 mb 0.00 in0.0 mm 0.00 in/hr0.0 mm/hr 0.00 in0.0 mm
02:11 AM 33.4°F0.8°C 30.4°F-0.9°C 89% - N16091.8 kmh N -- 30.26 in1024.7 mb 0.00 in0.0 mm 0.00 in/hr0.0 mm/hr 0.00 in0.0 mm
02:06 AM 33.6°F0.9°C 30.6°F-0.8°C 89% - N16091.8 kmh N -- 30.26 in1024.7 mb 0.00 in0.0 mm 0.00 in/hr0.0 mm/hr 0.00 in0.0 mm
02:01 AM 33.4°F0.8°C 30.4°F-0.9°C 89% - N16091.8 kmh N -- 30.27 in1025.1 mb 0.00 in0.0 mm 0.00 in/hr0.0 mm/hr 0.00 in0.0 mm
01:56 AM 33.4°F0.8°C 30.4°F-0.9°C 89% - N16091.8 kmh N -- 30.27 in1025.1 mb 0.00 in0.0 mm 0.00 in/hr0.0 mm/hr 0.00 in0.0 mm
01:51 AM 33.4°F0.8°C 30.4°F-0.9°C 89% - N16091.8 kmh N -- 30.27 in1025.1 mb 0.00 in0.0 mm 0.00 in/hr0.0 mm/hr 0.00 in0.0 mm
01:46 AM 33.2°F0.7°C 30.3°F-0.9°C 89% - N16091.8 kmh N -- 30.27 in1025.1 mb 0.00 in0.0 mm 0.00 in/hr0.0 mm/hr 0.00 in0.0 mm
01:41 AM 33.4°F0.8°C 30.4°F-0.9°C 89% - N16091.8 kmh N -- 30.27 in1025.1 mb 0.00 in0.0 mm 0.00 in/hr0.0 mm/hr 0.00 in0.0 mm
01:36 AM 33.2°F0.7°C 30.3°F-0.9°C 89% - N16091.8 kmh N -- 30.26 in1024.7 mb 0.00 in0.0 mm 0.00 in/hr0.0 mm/hr 0.00 in0.0 mm
01:31 AM 33.0°F0.6°C 29.8°F-1.2°C 88% - N16091.8 kmh N -- 30.26 in1024.7 mb 0.00 in0.0 mm 0.00 in/hr0.0 mm/hr 0.00 in0.0 mm
01:26 AM 33.2°F0.7°C 30.0°F-1.1°C 88% - N16091.8 kmh N -- 30.26 in1024.7 mb 0.00 in0.0 mm 0.00 in/hr0.0 mm/hr 0.00 in0.0 mm
01:21 AM 33.2°F0.7°C 30.0°F-1.1°C 88% - N16091.8 kmh N -- 30.26 in1024.7 mb 0.00 in0.0 mm 0.00 in/hr0.0 mm/hr 0.00 in0.0 mm
01:16 AM 33.2°F0.7°C 30.0°F-1.1°C 88% - N16091.8 kmh N -- 30.26 in1024.7 mb 0.00 in0.0 mm 0.00 in/hr0.0 mm/hr 0.00 in0.0 mm
01:11 AM 33.4°F0.8°C 30.2°F-1.0°C 88% - N16091.8 kmh N -- 30.26 in1024.7 mb 0.00 in0.0 mm 0.00 in/hr0.0 mm/hr 0.00 in0.0 mm
01:06 AM 33.4°F0.8°C 30.2°F-1.0°C 88% - N16091.8 kmh N -- 30.26 in1024.7 mb 0.00 in0.0 mm 0.00 in/hr0.0 mm/hr 0.00 in0.0 mm
01:01 AM 33.4°F0.8°C 30.2°F-1.0°C 88% - N16091.8 kmh N -- 30.27 in1025.1 mb 0.00 in0.0 mm 0.00 in/hr0.0 mm/hr 0.00 in0.0 mm
12:55 AM 33.4°F0.8°C 30.2°F-1.0°C 88% - N16091.8 kmh N -- 30.26 in1024.7 mb 0.00 in0.0 mm 0.00 in/hr0.0 mm/hr 0.00 in0.0 mm
12:50 AM 33.4°F0.8°C 30.2°F-1.0°C 88% - N16091.8 kmh N -- 30.27 in1025.1 mb 0.00 in0.0 mm 0.00 in/hr0.0 mm/hr 0.00 in0.0 mm
12:45 AM 33.4°F0.8°C 30.2°F-1.0°C 88% - N16091.8 kmh N -- 30.27 in1025.1 mb 0.00 in0.0 mm 0.00 in/hr0.0 mm/hr 0.00 in0.0 mm
12:40 AM 33.4°F0.8°C 30.2°F-1.0°C 88% - N16091.8 kmh N -- 30.27 in1025.1 mb 0.00 in0.0 mm 0.00 in/hr0.0 mm/hr 0.00 in0.0 mm
12:35 AM 33.4°F0.8°C 30.2°F-1.0°C 88% - N16091.8 kmh N -- 30.27 in1025.1 mb 0.00 in0.0 mm 0.00 in/hr0.0 mm/hr 0.00 in0.0 mm
12:30 AM 33.6°F0.9°C 30.3°F-0.9°C 88% - N16091.8 kmh N -- 30.27 in1025.1 mb 0.00 in0.0 mm 0.00 in/hr0.0 mm/hr 0.00 in0.0 mm
12:25 AM 33.6°F0.9°C 30.3°F-0.9°C 88% - N16091.8 kmh N -- 30.27 in1025.1 mb 0.00 in0.0 mm 0.00 in/hr0.0 mm/hr 0.00 in0.0 mm
12:20 AM 33.9°F1.1°C 30.7°F-0.7°C 88% - N16091.8 kmh N -- 30.28 in1025.4 mb 0.00 in0.0 mm 0.00 in/hr0.0 mm/hr 0.00 in0.0 mm
12:15 AM 33.9°F1.1°C 30.7°F-0.7°C 88% - N16091.8 kmh N -- 30.27 in1025.1 mb 0.00 in0.0 mm 0.00 in/hr0.0 mm/hr 0.00 in0.0 mm
12:10 AM 33.8°F1.0°C 30.5°F-0.8°C 88% - N16091.8 kmh N -- 30.27 in1025.1 mb 0.00 in0.0 mm 0.00 in/hr0.0 mm/hr 0.00 in0.0 mm
12:05 AM 33.8°F1.0°C 30.5°F-0.8°C 88% - N16091.8 kmh N -- 30.27 in1025.1 mb 0.00 in0.0 mm 0.00 in/hr0.0 mm/hr 0.00 in0.0 mm
12:00 AM 33.9°F1.1°C 30.7°F-0.7°C 88% - N16091.8 kmh N -- 30.27 in1025.1 mb 0.00 in0.0 mm 0.00 in/hr0.0 mm/hr 0.00 in0.0 mm